Time;durP1;ratioP1;P1;durP2;ratioP2;P2;SDS_P1;SDS_P2;PMS_P1;PMS_P2;Temp;Humidity;BMP_temperature;BMP_pressure;BME280_temperature;BME280_humidity;BME280_pressure;Samples;Min_cycle;Max_cycle;Signal;HPM_P1;HPM_P2
2022/06/09 00:01:28;;;;;;;37.63;16.13;;;14.60;99.90;;;;;;5102279;28;20039;-67
2022/06/09 00:03:57;;;;;;;33.33;17.00;;;14.70;99.90;;;;;;5099912;28;20044;-67
2022/06/09 00:06:26;;;;;;;31.92;16.30;;;14.60;99.90;;;;;;5102089;28;20048;-67
2022/06/09 00:08:52;;;;;;;;;;;14.80;99.90;;;;;;5102751;28;20040;-67
2022/06/09 00:11:23;;;;;;;31.92;16.75;;;14.70;99.90;;;;;;5102566;28;19927;-67
2022/06/09 00:13:49;;;;;;;32.90;16.33;;;14.70;99.90;;;;;;5102153;28;20048;-67
2022/06/09 00:16:15;;;;;;;35.97;16.48;;;14.90;99.90;;;;;;5102604;28;20055;-67
2022/06/09 00:18:41;;;;;;;38.08;17.83;;;14.60;99.90;;;;;;5102396;28;20048;-67
2022/06/09 00:21:07;;;;;;;35.80;16.90;;;14.70;99.90;;;;;;5102951;28;20074;-67
2022/06/09 00:23:33;;;;;;;34.90;17.38;;;14.60;99.90;;;;;;5102493;28;20036;-67
2022/06/09 00:25:59;;;;;;;38.63;16.92;;;14.70;99.90;;;;;;5102948;28;20108;-67
2022/06/09 00:28:24;;;;;;;32.08;15.27;;;14.60;99.90;;;;;;5102557;28;20059;-67
2022/06/09 00:30:50;;;;;;;40.50;16.40;;;14.80;99.90;;;;;;5102369;28;20090;-67
2022/06/09 00:33:17;;;;;;;37.17;16.75;;;14.90;99.90;;;;;;5102886;28;20127;-67
2022/06/09 00:35:42;;;;;;;37.58;16.58;;;14.60;99.90;;;;;;5103267;28;20055;-67
2022/06/09 00:38:08;;;;;;;37.25;16.75;;;14.70;99.90;;;;;;5103088;28;20071;-67
2022/06/09 00:40:34;;;;;;;36.60;16.88;;;14.50;99.90;;;;;;5103085;28;20048;-67
2022/06/09 00:43:02;;;;;;;38.08;15.98;;;14.60;99.90;;;;;;5103497;28;20500;-67
2022/06/09 00:45:37;;;;;;;34.85;16.10;;;14.70;99.90;;;;;;5101877;28;20097;-67
2022/06/09 00:48:11;;;;;;;40.72;17.10;;;14.90;99.90;;;;;;5102112;28;20093;-67
2022/06/09 00:50:39;;;;;;;35.00;15.10;;;14.70;99.90;;;;;;5102081;28;20048;-68
2022/06/09 00:53:12;;;;;;;39.70;16.02;;;14.60;99.90;;;;;;5096184;28;20044;-67
2022/06/09 00:55:39;;;;;;;33.45;16.17;;;14.60;99.90;;;;;;5101953;28;20051;-67
2022/06/09 00:58:08;;;;;;;37.35;15.45;;;14.70;99.90;;;;;;5102131;28;20036;-67
2022/06/09 01:00:46;;;;;;;36.35;16.20;;;14.70;99.90;;;;;;5103022;28;20032;-67
2022/06/09 01:03:13;;;;;;;33.38;15.07;;;14.90;99.90;;;;;;5105540;28;20044;-67
2022/06/09 01:05:40;;;;;;;33.65;14.93;;;14.70;99.90;;;;;;5106869;28;20109;-67
2022/06/09 01:08:09;;;;;;;42.95;16.02;;;14.80;99.90;;;;;;5105982;28;20130;-68
2022/06/09 01:10:35;;;;;;;37.97;13.80;;;14.70;99.90;;;;;;5106616;28;20462;-67
2022/06/09 01:13:00;;;;;;;40.13;14.07;;;14.60;99.90;;;;;;5105271;28;20040;-67
2022/06/09 01:15:37;;;;;;;31.27;13.85;;;14.70;99.90;;;;;;5105595;28;20052;-67
2022/06/09 01:18:26;;;;;;;34.85;12.68;;;14.60;99.90;;;;;;5088686;28;20032;-67
2022/06/09 01:21:05;;;;;;;36.47;13.27;;;14.40;99.90;;;;;;5105171;28;20060;-68
2022/06/09 01:23:53;;;;;;;34.60;14.07;;;14.30;99.90;;;;;;5105211;28;20050;-67
2022/06/09 01:26:56;;;;;;;33.05;11.93;;;14.40;99.90;;;;;;5105611;28;20047;-67
2022/06/09 01:29:35;;;;;;;37.33;14.20;;;14.30;99.90;;;;;;5099252;28;20119;-67
2022/06/09 01:32:17;;;;;;;36.10;13.27;;;14.40;99.90;;;;;;5105557;28;20111;-67
2022/06/09 01:35:24;;;;;;;34.33;13.38;;;14.30;99.90;;;;;;5106552;28;20052;-67
2022/06/09 01:37:56;;;;;;;32.97;13.27;;;14.20;99.90;;;;;;5101637;28;20085;-67
2022/06/09 01:40:23;;;;;;;34.08;14.10;;;14.40;99.90;;;;;;5122227;27;20047;-67
2022/06/09 01:42:57;;;;;;;34.38;14.27;;;14.30;99.90;;;;;;5105568;28;20052;-67
2022/06/09 01:45:32;;;;;;;31.30;13.45;;;14.50;99.90;;;;;;5101955;28;20083;-67
2022/06/09 01:47:57;;;;;;;41.75;16.65;;;14.30;99.90;;;;;;5104574;28;20050;-67
2022/06/09 01:50:43;;;;;;;36.78;15.88;;;14.50;99.90;;;;;;5104978;28;20052;-67
2022/06/09 01:53:23;;;;;;;40.20;15.85;;;14.50;99.90;;;;;;5104738;28;20055;-67
2022/06/09 01:55:56;;;;;;;38.30;16.38;;;14.30;99.90;;;;;;5104916;28;20087;-67
2022/06/09 01:58:26;;;;;;;41.00;16.13;;;14.10;99.90;;;;;;5105763;28;20100;-67
2022/06/09 02:00:54;;;;;;;33.80;15.75;;;14.30;99.90;;;;;;5104866;28;20064;-67
2022/06/09 02:03:28;;;;;;;36.22;15.57;;;14.20;99.90;;;;;;5105777;28;20036;-67
2022/06/09 02:05:58;;;;;;;38.60;15.00;;;14.40;99.90;;;;;;5104721;28;20086;-67
2022/06/09 02:08:24;;;;;;;;;;;14.40;99.90;;;;;;5105831;28;20059;-67
2022/06/09 02:10:59;;;;;;;33.40;14.70;;;14.20;99.90;;;;;;5088512;28;19993;-67
2022/06/09 02:13:29;;;;;;;37.67;14.18;;;14.30;99.90;;;;;;5102819;28;20125;-67
2022/06/09 02:15:59;;;;;;;30.42;14.45;;;14.30;99.90;;;;;;5106256;28;20399;-67
2022/06/09 02:18:27;;;;;;;;;;;14.20;99.90;;;;;;5105896;28;20036;-67
2022/06/09 02:21:20;;;;;;;35.17;15.48;;;14.10;99.90;;;;;;5105188;28;20019;-67
2022/06/09 02:23:47;;;;;;;33.28;14.68;;;14.20;99.90;;;;;;5102668;28;20074;-67
2022/06/09 02:26:14;;;;;;;30.60;14.98;;;14.00;99.90;;;;;;5104265;28;20059;-67
2022/06/09 02:28:40;;;;;;;29.30;13.63;;;14.10;99.90;;;;;;5102525;28;20048;-67
2022/06/09 02:31:06;;;;;;;35.85;13.73;;;14.00;99.90;;;;;;5103666;28;20052;-67
2022/06/09 02:33:32;;;;;;;34.55;15.10;;;14.10;99.90;;;;;;5103756;28;20054;-67
2022/06/09 02:35:58;;;;;;;39.15;14.02;;;14.00;99.90;;;;;;5105988;28;20044;-67
2022/06/09 02:38:24;;;;;;;35.38;13.48;;;13.80;99.90;;;;;;5103680;28;20052;-67
2022/06/09 02:40:51;;;;;;;34.08;14.20;;;13.70;99.90;;;;;;5105337;28;20051;-67
2022/06/09 02:43:18;;;;;;;39.97;14.18;;;13.80;99.90;;;;;;5103669;28;20054;-67
2022/06/09 02:45:43;;;;;;;41.80;15.35;;;13.70;99.90;;;;;;5103900;28;20450;-67
2022/06/09 02:48:09;;;;;;;36.35;15.95;;;13.70;99.90;;;;;;5104543;28;20038;-67
2022/06/09 02:50:36;;;;;;;39.67;15.95;;;13.70;99.90;;;;;;5103777;28;20145;-67
2022/06/09 02:53:02;;;;;;;45.70;16.80;;;13.80;99.90;;;;;;5103271;28;20040;-67
2022/06/09 02:55:29;;;;;;;44.97;17.58;;;13.90;99.90;;;;;;5104909;28;20048;-67
2022/06/09 02:57:54;;;;;;;38.97;16.92;;;13.90;99.90;;;;;;5103647;28;20044;-67
2022/06/09 03:00:21;;;;;;;41.95;18.48;;;13.90;99.90;;;;;;5103944;28;20065;-67
2022/06/09 03:03:09;;;;;;;37.03;17.10;;;13.80;99.90;;;;;;5103654;28;20044;-67
2022/06/09 03:05:36;;;;;;;40.55;18.95;;;13.90;99.90;;;;;;5104846;28;20490;-67
2022/06/09 03:08:03;;;;;;;43.25;18.38;;;13.70;99.90;;;;;;5104746;28;20048;-67
2022/06/09 03:10:29;;;;;;;37.05;17.90;;;13.60;99.90;;;;;;5103132;28;20040;-67
2022/06/09 03:12:55;;;;;;;36.15;17.05;;;13.80;99.90;;;;;;5103184;28;20056;-67
2022/06/09 03:15:22;;;;;;;37.78;17.55;;;13.80;99.90;;;;;;5104566;28;20063;-67
2022/06/09 03:17:49;;;;;;;41.53;16.23;;;13.80;99.90;;;;;;5102654;28;20054;-67
2022/06/09 03:20:19;;;;;;;39.70;16.40;;;13.80;99.90;;;;;;5103636;28;20051;-67
2022/06/09 03:22:45;;;;;;;32.00;14.57;;;13.80;99.90;;;;;;5104440;28;20185;-67
2022/06/09 03:25:11;;;;;;;33.97;13.90;;;13.70;99.90;;;;;;5101986;28;20508;-67
2022/06/09 03:27:37;;;;;;;36.95;14.23;;;13.70;99.90;;;;;;5086201;28;20111;-67
2022/06/09 03:30:04;;;;;;;29.10;14.00;;;13.80;99.90;;;;;;5086531;28;20048;-68
2022/06/09 03:32:29;;;;;;;29.25;13.60;;;13.80;99.90;;;;;;5102481;28;20104;-67
2022/06/09 03:34:56;;;;;;;22.10;11.35;;;13.80;99.90;;;;;;5104736;28;20059;-67
2022/06/09 03:37:22;;;;;;;23.77;11.90;;;13.60;99.90;;;;;;5104634;28;20060;-67
2022/06/09 03:39:48;;;;;;;24.77;11.88;;;13.50;99.90;;;;;;5102924;28;20048;-67
2022/06/09 03:42:14;;;;;;;25.35;12.63;;;13.40;99.90;;;;;;5102950;28;20101;-67
2022/06/09 03:44:40;;;;;;;23.48;12.75;;;13.50;99.90;;;;;;5104451;28;20028;-67
2022/06/09 03:47:06;;;;;;;20.75;10.80;;;13.50;99.90;;;;;;5104604;28;20147;-67
2022/06/09 03:49:32;;;;;;;29.45;11.63;;;13.30;99.90;;;;;;5105085;28;20044;-67
2022/06/09 03:51:57;;;;;;;26.80;10.75;;;13.30;99.90;;;;;;5103949;28;20126;-67
2022/06/09 03:54:23;;;;;;;31.30;12.27;;;13.30;99.90;;;;;;5103970;28;20042;-67
2022/06/09 03:56:50;;;;;;;29.98;11.88;;;13.30;99.90;;;;;;5102979;28;20047;-67
2022/06/09 03:59:15;;;;;;;28.08;11.52;;;13.30;99.90;;;;;;5104030;28;20039;-67
2022/06/09 04:01:42;;;;;;;26.83;10.77;;;13.30;99.90;;;;;;5088307;28;20510;-67
2022/06/09 04:04:07;;;;;;;28.13;12.43;;;13.10;99.90;;;;;;5102904;28;20055;-67
2022/06/09 04:06:35;;;;;;;33.28;12.30;;;13.20;99.90;;;;;;5102471;28;20048;-67
2022/06/09 04:09:01;;;;;;;25.13;10.77;;;13.20;99.90;;;;;;5103639;28;20054;-67
2022/06/09 04:11:26;;;;;;;27.95;12.32;;;13.10;99.90;;;;;;5103932;28;20048;-67
2022/06/09 04:13:52;;;;;;;25.63;11.57;;;13.20;99.90;;;;;;5102601;28;20109;-67
2022/06/09 04:16:27;;;;;;;25.75;12.48;;;13.20;99.90;;;;;;5104501;28;20032;-67
2022/06/09 04:18:55;;;;;;;31.30;12.57;;;13.20;99.90;;;;;;5086099;28;20071;-67
2022/06/09 04:21:22;;;;;;;28.15;12.15;;;13.20;99.90;;;;;;5103364;28;20075;-67
2022/06/09 04:23:48;;;;;;;27.02;12.40;;;13.20;99.90;;;;;;5098174;28;20074;-67
2022/06/09 04:26:20;;;;;;;29.95;12.82;;;13.30;99.90;;;;;;5103386;28;20036;-67
2022/06/09 04:28:46;;;;;;;33.17;13.48;;;13.30;99.90;;;;;;5103540;28;20048;-67
2022/06/09 04:31:13;;;;;;;28.95;13.27;;;13.40;99.90;;;;;;5102644;28;20056;-67
2022/06/09 04:33:40;;;;;;;28.30;13.55;;;13.40;99.90;;;;;;5102317;28;20077;-67
2022/06/09 04:36:07;;;;;;;32.10;14.90;;;13.50;99.90;;;;;;5104369;28;20036;-68
2022/06/09 04:38:35;;;;;;;28.35;14.52;;;13.50;99.90;;;;;;5106496;28;20087;-69
2022/06/09 04:41:02;;;;;;;28.45;13.75;;;13.60;99.90;;;;;;5107558;28;20076;-67
2022/06/09 04:43:28;;;;;;;30.05;14.18;;;13.30;99.90;;;;;;5106473;28;20500;-67
2022/06/09 04:45:54;;;;;;;30.92;14.98;;;13.60;99.90;;;;;;5085112;28;20063;-68
2022/06/09 04:48:20;;;;;;;26.42;14.13;;;13.50;99.90;;;;;;5076920;28;20044;-67
2022/06/09 04:50:45;;;;;;;30.60;14.70;;;13.50;99.90;;;;;;5090051;28;20062;-67
2022/06/09 04:53:11;;;;;;;26.75;14.43;;;13.60;99.90;;;;;;5099422;28;20090;-67
2022/06/09 04:55:38;;;;;;;29.75;14.55;;;13.60;99.90;;;;;;5088992;28;20115;-66
2022/06/09 04:58:04;;;;;;;25.80;13.48;;;13.70;99.90;;;;;;5098036;28;20363;-66
2022/06/09 05:00:30;;;;;;;26.85;13.63;;;13.70;99.90;;;;;;5098313;28;20052;-67
2022/06/09 05:02:59;;;;;;;35.55;14.48;;;13.90;99.90;;;;;;5089493;28;20061;-67
2022/06/09 05:05:30;;;;;;;23.77;12.70;;;13.70;99.90;;;;;;5098799;28;20087;-67
2022/06/09 05:07:56;;;;;;;27.85;13.77;;;13.80;99.90;;;;;;5092839;28;20044;-67
2022/06/09 05:10:22;;;;;;;30.27;13.52;;;13.80;99.90;;;;;;5098959;28;20052;-67
2022/06/09 05:12:48;;;;;;;27.80;13.32;;;13.90;99.90;;;;;;5099563;28;20466;-67
2022/06/09 05:15:16;;;;;;;25.52;13.07;;;14.00;99.90;;;;;;5091100;28;20629;-67
2022/06/09 05:17:43;;;;;;;25.73;12.27;;;14.10;99.90;;;;;;5099776;28;20069;-66
2022/06/09 05:20:14;;;;;;;22.70;11.82;;;14.20;99.90;;;;;;5084120;28;20143;-67
2022/06/09 05:22:40;;;;;;;18.75;11.70;;;13.90;99.90;;;;;;5074513;28;20040;-67
2022/06/09 05:25:06;;;;;;;26.00;13.98;;;14.20;99.90;;;;;;5090085;28;20166;-67
2022/06/09 05:27:32;;;;;;;23.33;13.65;;;14.00;99.90;;;;;;5099414;28;20040;-67
2022/06/09 05:29:58;;;;;;;23.25;14.30;;;14.30;99.90;;;;;;5091429;28;20065;-67
2022/06/09 05:32:24;;;;;;;25.63;16.92;;;14.40;99.90;;;;;;5096627;28;20048;-67
2022/06/09 05:34:50;;;;;;;26.42;15.57;;;14.40;99.90;;;;;;5056524;28;20051;-67
2022/06/09 05:37:15;;;;;;;29.85;16.20;;;14.30;99.90;;;;;;5079408;28;20043;-67
2022/06/09 05:45:10;;;;;;;24.35;17.10;;;14.30;99.90;;;;;;5078810;28;20050;-67
2022/06/09 05:47:36;;;;;;;22.73;16.55;;;14.40;99.90;;;;;;5097194;28;20063;-67
2022/06/09 05:50:03;;;;;;;25.15;16.17;;;14.40;99.90;;;;;;5090028;28;20578;-67
2022/06/09 05:52:29;;;;;;;25.05;15.75;;;14.50;99.90;;;;;;5096460;28;20116;-66
2022/06/09 05:54:55;;;;;;;26.67;17.10;;;14.40;99.90;;;;;;5089123;28;20121;-66
2022/06/09 05:57:22;;;;;;;26.65;16.58;;;14.40;99.90;;;;;;5094640;28;20054;-66
2022/06/09 05:59:49;;;;;;;27.20;17.58;;;14.30;99.90;;;;;;5090735;28;20082;-66
2022/06/09 06:02:16;;;;;;;27.45;16.63;;;14.40;99.90;;;;;;5102406;28;20040;-67
2022/06/09 06:04:42;;;;;;;28.48;18.13;;;14.50;99.90;;;;;;5085724;28;20055;-66
2022/06/09 06:07:08;;;;;;;28.98;18.17;;;14.50;99.90;;;;;;5102739;28;20052;-67
2022/06/09 06:09:34;;;;;;;29.20;18.05;;;14.60;99.90;;;;;;5086924;28;20056;-67
2022/06/09 06:12:03;;;;;;;31.88;19.20;;;14.40;99.90;;;;;;5093511;28;20100;-67
2022/06/09 06:14:30;;;;;;;30.77;19.30;;;14.30;99.90;;;;;;5095002;28;20093;-67
2022/06/09 06:16:56;;;;;;;28.33;18.73;;;14.50;99.90;;;;;;5081577;28;20075;-67
2022/06/09 06:19:23;;;;;;;30.10;19.23;;;14.30;99.90;;;;;;5090828;28;20055;-67
2022/06/09 06:21:50;;;;;;;26.63;18.92;;;14.60;99.90;;;;;;5093435;28;20131;-66
2022/06/09 06:24:20;;;;;;;23.63;17.75;;;14.80;99.90;;;;;;5090190;28;20279;-67
2022/06/09 06:26:46;;;;;;;;;;;14.70;99.90;;;;;;5106773;28;20642;-67
2022/06/09 06:29:18;;;;;;;29.77;19.08;;;14.60;99.90;;;;;;5089399;28;19920;-67
2022/06/09 06:31:44;;;;;;;22.55;18.48;;;14.70;99.90;;;;;;5106718;28;20056;-67
2022/06/09 06:34:11;;;;;;;29.30;19.70;;;14.60;99.90;;;;;;5091435;28;20310;-67
2022/06/09 06:36:36;;;;;;;28.70;19.92;;;14.70;99.90;;;;;;5096210;28;20460;-66
2022/06/09 06:39:03;;;;;;;28.77;19.65;;;14.80;99.90;;;;;;5091303;28;20171;-67
2022/06/09 06:41:30;;;;;;;28.67;19.55;;;14.90;99.90;;;;;;5098335;28;20044;-67
2022/06/09 06:43:56;;;;;;;26.48;19.83;;;14.90;99.90;;;;;;5087930;28;20502;-67
2022/06/09 06:46:22;;;;;;;26.63;20.35;;;14.90;99.90;;;;;;5091044;28;20518;-67
2022/06/09 06:48:48;;;;;;;26.13;19.20;;;15.10;99.90;;;;;;5088209;28;20517;-66
2022/06/09 06:51:14;;;;;;;25.17;19.15;;;15.00;99.90;;;;;;5113732;28;20068;-67
2022/06/09 06:53:40;;;;;;;25.15;17.90;;;15.30;99.90;;;;;;5084976;28;20057;-67
2022/06/09 06:56:07;;;;;;;30.13;20.58;;;15.20;99.90;;;;;;5077011;28;20648;-67
2022/06/09 06:58:33;;;;;;;29.25;20.02;;;15.40;99.90;;;;;;5097029;28;20036;-67
2022/06/09 07:00:59;;;;;;;24.70;19.45;;;15.30;99.90;;;;;;5088789;28;20043;-67
2022/06/09 07:03:26;;;;;;;29.33;19.23;;;15.60;99.90;;;;;;5095123;28;20470;-67
2022/06/09 07:05:51;;;;;;;24.35;18.48;;;15.60;99.90;;;;;;5102396;28;20082;-66
2022/06/09 07:08:17;;;;;;;31.15;20.13;;;15.70;99.90;;;;;;5096318;28;20036;-67
2022/06/09 07:10:44;;;;;;;29.27;19.15;;;15.70;99.90;;;;;;5087779;27;20048;-67
2022/06/09 07:13:10;;;;;;;27.00;19.27;;;15.80;99.90;;;;;;5098599;28;20560;-67
2022/06/09 07:15:37;;;;;;;26.58;19.20;;;15.70;99.90;;;;;;5088206;28;20605;-67
2022/06/09 07:18:02;;;;;;;21.92;17.98;;;15.90;99.90;;;;;;5092538;28;20119;-66
2022/06/09 07:20:28;;;;;;;21.80;17.52;;;16.00;99.90;;;;;;5081487;28;20379;-67
2022/06/09 07:22:55;;;;;;;23.40;18.17;;;15.90;99.90;;;;;;5094297;28;20040;-67
2022/06/09 07:25:24;;;;;;;21.92;17.75;;;15.80;99.90;;;;;;5090989;28;20051;-66
2022/06/09 07:27:51;;;;;;;23.55;16.70;;;15.80;99.90;;;;;;5099090;28;20051;-66
2022/06/09 07:30:18;;;;;;;25.02;16.27;;;15.90;99.90;;;;;;5084990;28;20043;-66
2022/06/09 07:32:44;;;;;;;18.23;15.75;;;16.00;99.90;;;;;;5103837;27;20044;-67
2022/06/09 07:35:14;;;;;;;22.17;14.85;;;16.00;99.90;;;;;;5088219;28;20332;-67
2022/06/09 07:37:40;;;;;;;;;;;16.10;99.90;;;;;;5097675;28;20048;-67
2022/06/09 07:40:07;;;;;;;15.20;13.05;;;15.90;99.90;;;;;;5088658;28;20023;-67
2022/06/09 07:42:33;;;;;;;17.70;13.43;;;16.10;99.90;;;;;;5066595;28;20048;-67
2022/06/09 07:44:59;;;;;;;17.98;13.70;;;16.00;99.90;;;;;;5079757;28;20071;-67
2022/06/09 07:47:25;;;;;;;16.92;14.60;;;16.10;99.90;;;;;;5095349;28;20606;-67
2022/06/09 07:49:52;;;;;;;14.10;12.20;;;16.20;99.90;;;;;;5087833;28;20071;-66
2022/06/09 07:52:18;;;;;;;18.13;13.05;;;16.40;99.90;;;;;;5094035;28;20496;-67
2022/06/09 07:54:44;;;;;;;14.95;12.70;;;16.50;99.90;;;;;;5071084;28;20047;-66
2022/06/09 07:57:11;;;;;;;13.15;11.73;;;16.40;99.90;;;;;;5095114;28;20040;-66
2022/06/09 07:59:38;;;;;;;13.68;11.50;;;16.60;99.90;;;;;;5093553;28;20063;-67
2022/06/09 08:02:04;;;;;;;13.00;10.50;;;16.60;99.90;;;;;;5077665;28;20071;-67
2022/06/09 08:04:30;;;;;;;11.48;10.30;;;16.70;99.90;;;;;;5086853;28;20339;-67
2022/06/09 08:06:56;;;;;;;10.77;9.70;;;16.60;99.90;;;;;;5094197;28;20056;-67
2022/06/09 08:09:22;;;;;;;13.48;10.20;;;16.80;99.90;;;;;;5089532;28;20047;-67
2022/06/09 08:11:47;;;;;;;17.55;9.85;;;17.10;99.90;;;;;;5100214;28;20076;-67
2022/06/09 08:14:14;;;;;;;13.15;9.80;;;16.90;99.90;;;;;;5093386;28;20083;-67
2022/06/09 08:16:41;;;;;;;11.48;8.80;;;16.80;99.90;;;;;;5096689;28;20040;-67
2022/06/09 08:19:07;;;;;;;9.73;7.57;;;16.80;99.90;;;;;;5089392;28;21010;-67
2022/06/09 08:21:33;;;;;;;10.75;8.43;;;16.90;99.90;;;;;;5097891;28;20118;-67
2022/06/09 08:23:59;;;;;;;10.15;7.88;;;17.20;99.90;;;;;;5099708;28;20557;-69
2022/06/09 08:26:26;;;;;;;11.32;7.68;;;17.20;99.90;;;;;;5097489;28;20055;-67
2022/06/09 08:28:52;;;;;;;8.98;7.15;;;17.30;99.90;;;;;;5098762;28;20621;-68
2022/06/09 08:31:18;;;;;;;10.23;6.80;;;17.30;99.90;;;;;;5087515;28;20081;-67
2022/06/09 08:33:44;;;;;;;9.43;5.70;;;17.30;99.90;;;;;;5082339;28;20376;-67
2022/06/09 08:36:10;;;;;;;8.95;6.07;;;17.50;99.90;;;;;;5078859;28;20056;-67
2022/06/09 08:38:36;;;;;;;11.57;5.82;;;17.60;99.90;;;;;;5096561;28;20482;-67
2022/06/09 08:41:13;;;;;;;7.63;5.85;;;17.40;99.90;;;;;;5088930;28;20082;-67
2022/06/09 08:43:42;;;;;;;8.32;5.90;;;17.50;99.90;;;;;;5099103;28;20059;-67
2022/06/09 08:46:15;;;;;;;10.52;6.00;;;17.60;99.90;;;;;;5080506;28;20055;-67
2022/06/09 08:48:44;;;;;;;6.95;5.28;;;17.80;99.90;;;;;;5100611;28;20136;-67
2022/06/09 08:51:15;;;;;;;7.85;5.07;;;17.80;99.90;;;;;;5090941;28;20240;-67
2022/06/09 08:53:56;;;;;;;8.27;4.35;;;17.90;99.90;;;;;;5099402;28;20040;-67
2022/06/09 08:56:29;;;;;;;7.38;4.80;;;17.90;99.90;;;;;;5089395;28;20081;-67
2022/06/09 08:59:20;;;;;;;8.38;4.97;;;18.10;99.90;;;;;;5096732;28;20051;-67
2022/06/09 09:01:53;;;;;;;8.70;4.53;;;18.10;99.90;;;;;;5070656;28;20077;-67
2022/06/09 09:04:27;;;;;;;5.85;3.72;;;17.90;99.90;;;;;;5090339;28;20036;-67
2022/06/09 09:07:25;;;;;;;7.43;3.60;;;17.90;99.90;;;;;;5097683;28;20047;-67
2022/06/09 09:09:56;;;;;;;5.57;3.25;;;18.00;99.90;;;;;;5083750;28;20063;-67
2022/06/09 09:12:49;;;;;;;3.72;3.00;;;18.20;99.90;;;;;;5080189;28;20138;-68
2022/06/09 09:15:41;;;;;;;6.20;3.85;;;18.30;99.90;;;;;;5085647;27;20044;-67
2022/06/09 09:18:26;;;;;;;6.40;4.03;;;18.30;99.90;;;;;;5079929;28;20401;-67
2022/06/09 09:20:59;;;;;;;6.18;3.00;;;18.30;99.90;;;;;;5101818;27;20147;-67
2022/06/09 09:23:39;;;;;;;4.68;3.00;;;18.40;99.90;;;;;;5097156;28;20040;-67
2022/06/09 09:26:36;;;;;;;7.28;3.55;;;18.70;99.90;;;;;;5090866;28;20462;-67
2022/06/09 09:29:11;;;;;;;3.63;2.45;;;18.80;99.90;;;;;;5108127;27;20047;-67
2022/06/09 09:32:01;;;;;;;2.58;2.22;;;18.70;99.90;;;;;;5069785;28;20052;-67
2022/06/09 09:34:32;;;;;;;;;;;18.70;99.90;;;;;;5090590;28;20366;-67
2022/06/09 09:37:13;;;;;;;9.25;2.90;;;18.70;99.90;;;;;;5098977;28;19920;-67
2022/06/09 09:39:53;;;;;;;8.27;2.85;;;18.70;99.90;;;;;;5091344;28;20047;-67
2022/06/09 09:42:24;;;;;;;3.70;2.50;;;18.90;99.90;;;;;;5096826;28;20535;-68
2022/06/09 09:45:04;;;;;;;5.90;2.70;;;19.10;99.90;;;;;;5078022;28;20502;-67
2022/06/09 09:47:31;;;;;;;4.90;2.25;;;18.90;99.90;;;;;;5091679;28;20095;-67
2022/06/09 09:50:06;;;;;;;3.47;2.05;;;18.80;99.90;;;;;;5089520;28;20051;-67
2022/06/09 09:52:39;;;;;;;6.63;2.17;;;18.70;99.90;;;;;;5098234;28;20541;-67
2022/06/09 09:55:25;;;;;;;6.78;2.75;;;18.60;99.90;;;;;;5083658;28;20054;-67
2022/06/09 09:58:15;;;;;;;6.07;2.25;;;18.70;99.90;;;;;;5092269;28;20078;-67
2022/06/09 10:00:42;;;;;;;8.02;2.70;;;19.00;99.90;;;;;;5074182;28;20592;-67
2022/06/09 10:08:54;;;;;;;5.60;2.90;;;19.20;99.90;;;;;;5097858;28;20138;-67
2022/06/09 10:14:36;;;;;;;7.53;2.47;;;19.20;99.90;;;;;;5091578;28;20048;-67
2022/06/09 10:17:18;;;;;;;5.50;2.58;;;19.30;99.90;;;;;;5087582;28;20067;-67
2022/06/09 10:19:52;;;;;;;5.18;2.17;;;19.30;99.90;;;;;;5088376;28;20048;-67
2022/06/09 10:22:21;;;;;;;7.13;2.85;;;19.50;99.90;;;;;;5090235;28;20051;-67
2022/06/09 10:25:19;;;;;;;7.15;2.67;;;19.30;99.90;;;;;;5088383;28;20384;-67
2022/06/09 10:27:49;;;;;;;7.03;2.55;;;19.30;99.90;;;;;;5086436;28;20058;-67
2022/06/09 10:30:25;;;;;;;6.53;2.47;;;19.10;99.90;;;;;;5088634;28;20061;-67
2022/06/09 10:32:58;;;;;;;4.30;2.45;;;18.90;99.90;;;;;;5093998;28;20055;-67
2022/06/09 10:35:24;;;;;;;7.28;2.67;;;18.80;99.90;;;;;;5083385;28;20090;-67
2022/06/09 10:37:52;;;;;;;5.72;2.00;;;18.90;99.90;;;;;;5075196;28;20052;-67
2022/06/09 10:40:27;;;;;;;8.48;2.65;;;18.90;99.90;;;;;;5069463;28;20294;-67
2022/06/09 10:43:02;;;;;;;7.00;2.67;;;19.00;99.90;;;;;;5083435;28;20377;-67
2022/06/09 10:45:49;;;;;;;6.13;2.40;;;19.10;99.90;;;;;;5072391;28;20060;-67
2022/06/09 10:57:08;;;;;;;6.00;2.13;;;19.40;99.90;;;;;;5066043;28;20123;-67
2022/06/09 10:59:56;;;;;;;3.42;2.03;;;19.60;99.90;;;;;;5072259;28;20551;-68
2022/06/09 11:02:26;;;;;;;8.77;3.17;;;19.70;99.90;;;;;;5078817;28;20067;-69
2022/06/09 11:04:53;;;;;;;9.27;2.33;;;19.70;99.90;;;;;;5069059;28;20074;-67
2022/06/09 11:07:34;;;;;;;5.55;2.58;;;19.60;99.90;;;;;;5077211;28;20516;-67
2022/06/09 11:10:02;;;;;;;6.90;2.38;;;19.60;99.90;;;;;;5089500;28;20450;-67
2022/06/09 11:12:43;;;;;;;5.15;2.30;;;19.80;99.90;;;;;;5094498;28;20054;-67
2022/06/09 11:15:09;;;;;;;5.68;2.15;;;19.90;99.90;;;;;;5088763;28;20054;-67
2022/06/09 11:17:58;;;;;;;5.30;2.00;;;19.90;99.90;;;;;;5095055;28;20036;-67
2022/06/09 11:20:47;;;;;;;4.82;2.10;;;19.90;99.90;;;;;;5087882;28;20054;-67
2022/06/09 11:23:31;;;;;;;4.35;1.88;;;19.60;99.90;;;;;;5100761;28;20054;-67
2022/06/09 11:26:11;;;;;;;6.30;2.28;;;19.70;99.90;;;;;;5072668;27;20044;-67
2022/06/09 11:28:57;;;;;;;5.68;2.10;;;19.50;99.90;;;;;;5115150;28;20062;-67
2022/06/09 11:31:34;;;;;;;15.50;2.67;;;19.50;99.90;;;;;;5102000;27;20479;-67
2022/06/09 11:34:12;;;;;;;5.63;2.40;;;19.80;99.90;;;;;;5070265;28;20155;-67
2022/06/09 11:36:58;;;;;;;7.88;2.67;;;19.90;99.90;;;;;;5067652;28;20058;-67
2022/06/09 11:39:38;;;;;;;7.97;2.60;;;19.80;99.90;;;;;;5075287;28;20053;-67
2022/06/09 11:42:09;;;;;;;6.15;2.45;;;19.70;99.90;;;;;;5066712;28;20162;-67
2022/06/09 11:44:38;;;;;;;7.63;3.15;;;19.60;99.90;;;;;;5077905;28;20613;-67
2022/06/09 11:47:32;;;;;;;6.85;2.35;;;19.90;99.90;;;;;;5055686;28;20380;-66
2022/06/09 11:50:04;;;;;;;9.57;2.38;;;19.90;99.90;;;;;;5084641;28;20048;-67
2022/06/09 11:52:39;;;;;;;7.25;2.35;;;19.80;99.90;;;;;;5094710;28;20276;-67
2022/06/09 11:58:36;;;;;;;6.00;2.20;;;19.80;99.90;;;;;;5084209;28;20071;-67
2022/06/09 12:01:33;;;;;;;8.27;2.40;;;19.80;99.90;;;;;;5092280;28;20108;-66
2022/06/09 12:04:25;;;;;;;5.13;2.33;;;20.20;99.90;;;;;;5091300;28;20206;-67
2022/06/09 12:07:11;;;;;;;5.43;1.65;;;20.20;99.90;;;;;;5081860;28;20360;-66
2022/06/09 12:09:55;;;;;;;6.25;2.63;;;19.80;99.90;;;;;;5091517;28;20055;-66
2022/06/09 12:12:24;;;;;;;4.18;2.35;;;19.40;99.90;;;;;;5083690;28;20060;-66
2022/06/09 12:15:15;;;;;;;6.22;1.98;;;19.60;99.90;;;;;;5079377;28;20139;-67
2022/06/09 12:17:58;;;;;;;4.55;2.00;;;19.90;99.90;;;;;;5062633;28;20093;-67
2022/06/09 12:20:27;;;;;;;4.88;2.35;;;20.00;99.90;;;;;;5066144;28;20151;-67
2022/06/09 12:23:04;;;;;;;3.33;1.90;;;20.10;99.90;;;;;;5091534;28;21146;-66
2022/06/09 12:25:36;;;;;;;5.25;2.25;;;20.00;99.90;;;;;;5088762;28;20347;-67
2022/06/09 12:28:26;;;;;;;5.68;2.33;;;20.00;99.90;;;;;;5093474;28;20056;-67
2022/06/09 12:31:11;;;;;;;5.68;2.08;;;19.80;99.90;;;;;;5084976;28;20040;-66
2022/06/09 12:33:38;;;;;;;7.72;2.38;;;20.20;99.90;;;;;;5093657;28;20059;-67
2022/06/09 12:36:12;;;;;;;4.85;2.05;;;20.40;99.90;;;;;;5087180;28;20039;-66
2022/06/09 12:38:55;;;;;;;8.45;2.20;;;20.30;99.90;;;;;;5094179;28;20082;-66
2022/06/09 12:41:37;;;;;;;5.88;2.30;;;20.40;99.90;;;;;;5067279;28;20146;-67
2022/06/09 12:44:24;;;;;;;7.28;2.30;;;20.60;99.90;;;;;;5076566;28;20043;-67
2022/06/09 12:47:15;;;;;;;4.78;1.95;;;20.60;99.90;;;;;;5076586;28;20062;-67
2022/06/09 12:49:44;;;;;;;7.85;3.05;;;20.30;99.90;;;;;;5094008;28;20051;-67
2022/06/09 12:52:38;;;;;;;5.95;2.22;;;20.30;99.90;;;;;;5088810;28;20624;-67
2022/06/09 12:55:25;;;;;;;9.60;2.33;;;20.30;99.90;;;;;;5095230;28;20054;-66
2022/06/09 12:58:20;;;;;;;6.47;2.55;;;20.50;99.90;;;;;;5069876;28;20044;-67
2022/06/09 13:00:53;;;;;;;5.78;2.83;;;20.40;99.90;;;;;;5086256;28;20051;-67
2022/06/09 13:03:26;;;;;;;5.60;2.30;;;20.50;99.90;;;;;;5098822;28;20051;-67
2022/06/09 13:05:52;;;;;;;4.20;2.05;;;20.70;99.90;;;;;;5092878;28;20094;-67
2022/06/09 13:08:18;;;;;;;7.57;1.83;;;20.70;99.90;;;;;;5099857;28;20093;-67
2022/06/09 13:10:53;;;;;;;4.82;1.60;;;20.80;99.90;;;;;;5093356;28;20060;-67
2022/06/09 13:13:45;;;;;;;5.88;1.90;;;20.80;99.90;;;;;;5094694;28;20036;-67
2022/06/09 13:16:17;;;;;;;4.18;1.88;;;20.80;99.90;;;;;;5072877;28;20067;-67
2022/06/09 13:18:47;;;;;;;5.43;1.60;;;20.90;99.90;;;;;;5107823;28;20048;-67
2022/06/09 13:21:15;;;;;;;;;;;21.00;99.90;;;;;;5087431;28;20039;-67
2022/06/09 13:23:44;;;;;;;3.53;1.90;;;21.10;99.90;;;;;;5095340;28;20525;-67